Terminal Aerodrome Forecast
Issued by NWS Wilmington, NC

Home | Current Version | Previous Version | Text Only | Print | Product List | Glossary On
Versions: 1 2 3 4 5 6 7 8 9 10 11 12 13 14 15 16
000
FTUS42 KILM 011100
TAFMYR
TAF
KMYR 011135Z 0112/0212 25005KT P6SM SCT015 SCT080
     FM011700 17009KT P6SM VCSH SCT020 SCT080
     FM011900 18013KT P6SM FEW030 SCT120 SCT250
     FM020500 24006KT P6SM FEW015 SCT050=

USA.gov is the U.S. government's official web portal to all federal, state and local government web resources and services.